sensor_id;sensor_type;location;lat;lon;timestamp;pressure;altitude;pressure_sealevel;temperature;humidity
65227;BME280;51805;49.012;12.104;2023-02-11T00:01:41;99765.84;;;21.71;44.03
65227;BME280;51805;49.012;12.104;2023-02-11T00:04:07;99759.84;;;21.69;44.19
65227;BME280;51805;49.012;12.104;2023-02-11T00:06:33;99765.72;;;21.66;44.16
65227;BME280;51805;49.012;12.104;2023-02-11T00:08:58;99765.09;;;21.64;44.13
65227;BME280;51805;49.012;12.104;2023-02-11T00:11:24;99762.53;;;21.69;44.08
65227;BME280;51805;49.012;12.104;2023-02-11T00:13:49;99759.69;;;21.64;44.04
65227;BME280;51805;49.012;12.104;2023-02-11T00:16:15;99764.53;;;21.62;44.15
65227;BME280;51805;49.012;12.104;2023-02-11T00:18:41;99761.81;;;21.62;44.18
65227;BME280;51805;49.012;12.104;2023-02-11T00:21:07;99756.88;;;21.59;44.27
65227;BME280;51805;49.012;12.104;2023-02-11T00:23:32;99756.03;;;21.59;44.27
65227;BME280;51805;49.012;12.104;2023-02-11T00:25:57;99754.41;;;21.58;44.13
65227;BME280;51805;49.012;12.104;2023-02-11T00:28:22;99756.50;;;21.56;44.31
65227;BME280;51805;49.012;12.104;2023-02-11T00:30:57;99755.28;;;21.52;44.43
65227;BME280;51805;49.012;12.104;2023-02-11T00:33:22;99752.34;;;21.53;44.29
65227;BME280;51805;49.012;12.104;2023-02-11T00:35:48;99759.06;;;21.51;44.41
65227;BME280;51805;49.012;12.104;2023-02-11T00:38:13;99754.94;;;21.48;44.42
65227;BME280;51805;49.012;12.104;2023-02-11T00:40:38;99757.88;;;21.47;44.40
65227;BME280;51805;49.012;12.104;2023-02-11T00:43:03;99757.50;;;21.43;44.46
65227;BME280;51805;49.012;12.104;2023-02-11T00:45:28;99752.56;;;21.40;44.57
65227;BME280;51805;49.012;12.104;2023-02-11T00:47:53;99756.31;;;21.39;44.55
65227;BME280;51805;49.012;12.104;2023-02-11T00:50:19;99745.50;;;21.39;44.50
65227;BME280;51805;49.012;12.104;2023-02-11T00:52:44;99737.63;;;21.37;44.55
65227;BME280;51805;49.012;12.104;2023-02-11T00:55:09;99736.63;;;21.32;44.71
65227;BME280;51805;49.012;12.104;2023-02-11T00:57:34;99750.78;;;21.34;44.57
65227;BME280;51805;49.012;12.104;2023-02-11T00:59:59;99748.53;;;21.31;44.69
65227;BME280;51805;49.012;12.104;2023-02-11T01:02:24;99751.44;;;21.29;44.78
65227;BME280;51805;49.012;12.104;2023-02-11T01:04:50;99746.84;;;21.30;44.77
65227;BME280;51805;49.012;12.104;2023-02-11T01:07:15;99741.91;;;21.27;44.83
65227;BME280;51805;49.012;12.104;2023-02-11T01:09:40;99744.38;;;21.28;44.68
65227;BME280;51805;49.012;12.104;2023-02-11T01:12:05;99747.31;;;21.27;44.81
65227;BME280;51805;49.012;12.104;2023-02-11T01:14:30;99755.66;;;21.25;44.66
65227;BME280;51805;49.012;12.104;2023-02-11T01:16:55;99750.47;;;21.24;44.74
65227;BME280;51805;49.012;12.104;2023-02-11T01:19:20;99747.19;;;21.22;44.63
65227;BME280;51805;49.012;12.104;2023-02-11T01:21:46;99741.19;;;21.20;44.72
65227;BME280;51805;49.012;12.104;2023-02-11T01:24:11;99739.53;;;21.19;44.95
65227;BME280;51805;49.012;12.104;2023-02-11T01:26:36;99738.69;;;21.18;44.82
65227;BME280;51805;49.012;12.104;2023-02-11T01:29:01;99730.81;;;21.17;44.77
65227;BME280;51805;49.012;12.104;2023-02-11T01:31:26;99726.25;;;21.17;44.83
65227;BME280;51805;49.012;12.104;2023-02-11T01:33:52;99713.75;;;21.16;44.85
65227;BME280;51805;49.012;12.104;2023-02-11T01:36:17;99713.97;;;21.15;45.00
65227;BME280;51805;49.012;12.104;2023-02-11T01:38:42;99716.09;;;21.13;45.27
65227;BME280;51805;49.012;12.104;2023-02-11T01:41:08;99719.84;;;21.12;45.26
65227;BME280;51805;49.012;12.104;2023-02-11T01:43:38;99727.97;;;21.12;45.45
65227;BME280;51805;49.012;12.104;2023-02-11T01:48:33;99704.31;;;21.07;45.34
65227;BME280;51805;49.012;12.104;2023-02-11T01:51:04;99699.97;;;21.06;45.57
65227;BME280;51805;49.012;12.104;2023-02-11T01:53:30;99692.66;;;21.07;45.51
65227;BME280;51805;49.012;12.104;2023-02-11T01:55:56;99686.69;;;21.05;45.53
65227;BME280;51805;49.012;12.104;2023-02-11T01:58:21;99683.13;;;21.04;45.46
65227;BME280;51805;49.012;12.104;2023-02-11T02:00:47;99675.25;;;21.03;45.73
65227;BME280;51805;49.012;12.104;2023-02-11T02:03:19;99673.63;;;21.02;45.64
65227;BME280;51805;49.012;12.104;2023-02-11T02:10:39;99665.97;;;20.99;45.74
65227;BME280;51805;49.012;12.104;2023-02-11T02:13:05;99671.59;;;20.97;45.85
65227;BME280;51805;49.012;12.104;2023-02-11T02:15:33;99662.66;;;20.97;45.89
65227;BME280;51805;49.012;12.104;2023-02-11T02:26:24;99664.13;;;20.93;45.95
65227;BME280;51805;49.012;12.104;2023-02-11T02:39:02;99668.34;;;20.89;45.99
65227;BME280;51805;49.012;12.104;2023-02-11T02:41:32;99669.63;;;20.86;46.02
65227;BME280;51805;49.012;12.104;2023-02-11T02:43:58;99682.31;;;20.86;46.28
65227;BME280;51805;49.012;12.104;2023-02-11T02:48:49;99677.97;;;20.85;46.14
65227;BME280;51805;49.012;12.104;2023-02-11T02:56:36;99670.31;;;20.82;46.30
65227;BME280;51805;49.012;12.104;2023-02-11T03:01:34;99671.56;;;20.79;46.44
65227;BME280;51805;49.012;12.104;2023-02-11T03:09:17;99677.22;;;20.78;46.43
65227;BME280;51805;49.012;12.104;2023-02-11T03:11:45;99669.09;;;20.78;46.49
65227;BME280;51805;49.012;12.104;2023-02-11T03:14:11;99658.50;;;20.76;46.45
65227;BME280;51805;49.012;12.104;2023-02-11T03:16:37;99662.88;;;20.77;46.50
65227;BME280;51805;49.012;12.104;2023-02-11T03:19:05;99652.31;;;20.76;46.42
65227;BME280;51805;49.012;12.104;2023-02-11T03:21:33;99650.63;;;20.75;46.60
65227;BME280;51805;49.012;12.104;2023-02-11T03:24:00;99639.84;;;20.75;46.51
65227;BME280;51805;49.012;12.104;2023-02-11T03:31:47;99654.84;;;20.71;46.61
65227;BME280;51805;49.012;12.104;2023-02-11T03:34:25;99654.84;;;20.71;46.53
65227;BME280;51805;49.012;12.104;2023-02-11T03:39:22;99650.72;;;20.68;46.71
65227;BME280;51805;49.012;12.104;2023-02-11T03:41:49;99661.28;;;20.70;46.72
65227;BME280;51805;49.012;12.104;2023-02-11T03:44:15;99657.78;;;20.69;46.63
65227;BME280;51805;49.012;12.104;2023-02-11T03:46:41;99659.88;;;20.67;46.66
65227;BME280;51805;49.012;12.104;2023-02-11T03:49:09;99646.38;;;20.67;46.63
65227;BME280;51805;49.012;12.104;2023-02-11T03:51:36;99651.16;;;20.65;46.65
65227;BME280;51805;49.012;12.104;2023-02-11T03:54:02;99656.34;;;20.67;46.64
65227;BME280;51805;49.012;12.104;2023-02-11T03:56:29;99651.41;;;20.64;46.78
65227;BME280;51805;49.012;12.104;2023-02-11T03:58:56;99653.06;;;20.65;46.86
65227;BME280;51805;49.012;12.104;2023-02-11T04:01:21;99652.22;;;20.64;46.78
65227;BME280;51805;49.012;12.104;2023-02-11T04:03:46;99662.44;;;20.62;46.80
65227;BME280;51805;49.012;12.104;2023-02-11T04:06:11;99662.44;;;20.62;46.86
65227;BME280;51805;49.012;12.104;2023-02-11T04:08:36;99655.63;;;20.60;46.71
65227;BME280;51805;49.012;12.104;2023-02-11T04:11:02;99653.53;;;20.62;46.70
65227;BME280;51805;49.012;12.104;2023-02-11T04:13:27;99659.94;;;20.61;46.88
65227;BME280;51805;49.012;12.104;2023-02-11T04:15:52;99648.56;;;20.59;46.99
65227;BME280;51805;49.012;12.104;2023-02-11T04:18:17;99652.06;;;20.59;46.82
65227;BME280;51805;49.012;12.104;2023-02-11T04:20:42;99655.84;;;20.58;46.77
65227;BME280;51805;49.012;12.104;2023-02-11T04:23:07;99638.78;;;20.58;46.91
65227;BME280;51805;49.012;12.104;2023-02-11T04:25:33;99646.09;;;20.57;47.06
65227;BME280;51805;49.012;12.104;2023-02-11T04:27:58;99646.91;;;20.58;46.93
65227;BME280;51805;49.012;12.104;2023-02-11T04:30:23;99646.31;;;20.56;46.97
65227;BME280;51805;49.012;12.104;2023-02-11T04:32:48;99640.09;;;20.55;47.00
65227;BME280;51805;49.012;12.104;2023-02-11T04:35:13;99628.91;;;20.52;47.12
65227;BME280;51805;49.012;12.104;2023-02-11T04:37:38;99622.66;;;20.51;47.06
65227;BME280;51805;49.012;12.104;2023-02-11T04:40:03;99623.72;;;20.50;47.18
65227;BME280;51805;49.012;12.104;2023-02-11T04:42:29;99625.38;;;20.51;47.22
65227;BME280;51805;49.012;12.104;2023-02-11T04:44:54;99634.53;;;20.50;47.09
65227;BME280;51805;49.012;12.104;2023-02-11T04:47:19;99625.59;;;20.50;47.10
65227;BME280;51805;49.012;12.104;2023-02-11T04:49:44;99623.50;;;20.52;46.99
65227;BME280;51805;49.012;12.104;2023-02-11T04:52:10;99618.56;;;20.49;47.28
65227;BME280;51805;49.012;12.104;2023-02-11T04:54:35;99617.72;;;20.48;47.07
65227;BME280;51805;49.012;12.104;2023-02-11T04:57:00;99626.03;;;20.47;47.31
65227;BME280;51805;49.012;12.104;2023-02-11T04:59:25;99624.41;;;20.46;47.20
65227;BME280;51805;49.012;12.104;2023-02-11T05:01:51;99618.16;;;20.45;47.12
65227;BME280;51805;49.012;12.104;2023-02-11T05:04:16;99613.59;;;20.46;47.17
65227;BME280;51805;49.012;12.104;2023-02-11T05:06:41;99618.38;;;20.44;47.34
65227;BME280;51805;49.012;12.104;2023-02-11T05:09:06;99631.09;;;20.43;47.39
65227;BME280;51805;49.012;12.104;2023-02-11T05:11:31;99638.97;;;20.45;47.25
65227;BME280;51805;49.012;12.104;2023-02-11T05:13:56;99623.00;;;20.43;47.34
65227;BME280;51805;49.012;12.104;2023-02-11T05:16:22;99610.75;;;20.41;47.39
65227;BME280;51805;49.012;12.104;2023-02-11T05:18:47;99618.63;;;20.42;47.09
65227;BME280;51805;49.012;12.104;2023-02-11T05:21:13;99634.03;;;20.42;47.40
65227;BME280;51805;49.012;12.104;2023-02-11T05:23:39;99626.94;;;20.41;47.37
65227;BME280;51805;49.012;12.104;2023-02-11T05:26:04;99623.44;;;20.40;47.37
65227;BME280;51805;49.012;12.104;2023-02-11T05:28:30;99630.72;;;20.40;47.29
65227;BME280;51805;49.012;12.104;2023-02-11T05:30:55;99618.84;;;20.41;47.28
65227;BME280;51805;49.012;12.104;2023-02-11T05:33:20;99617.81;;;20.42;47.39
65227;BME280;51805;49.012;12.104;2023-02-11T05:35:45;99616.75;;;20.43;47.38
65227;BME280;51805;49.012;12.104;2023-02-11T05:38:10;99608.66;;;20.43;47.32
65227;BME280;51805;49.012;12.104;2023-02-11T05:40:36;99597.63;;;20.44;47.26
65227;BME280;51805;49.012;12.104;2023-02-11T05:43:01;99588.69;;;20.44;47.24
65227;BME280;51805;49.012;12.104;2023-02-11T05:45:27;99592.00;;;20.46;47.22
65227;BME280;51805;49.012;12.104;2023-02-11T05:47:52;99593.63;;;20.47;47.13
65227;BME280;51805;49.012;12.104;2023-02-11T05:50:17;99598.00;;;20.48;47.04
65227;BME280;51805;49.012;12.104;2023-02-11T05:52:42;99591.53;;;20.49;46.99
65227;BME280;51805;49.012;12.104;2023-02-11T05:55:07;99586.97;;;20.49;47.05
65227;BME280;51805;49.012;12.104;2023-02-11T05:57:32;99587.78;;;20.50;47.21
65227;BME280;51805;49.012;12.104;2023-02-11T05:59:58;99587.31;;;20.53;46.97
65227;BME280;51805;49.012;12.104;2023-02-11T06:02:23;99592.72;;;20.53;47.14
65227;BME280;51805;49.012;12.104;2023-02-11T06:10:19;99600.63;;;20.54;46.90
65227;BME280;51805;49.012;12.104;2023-02-11T06:12:44;99600.97;;;20.58;46.78
65227;BME280;51805;49.012;12.104;2023-02-11T06:15:09;99602.66;;;20.59;46.96
65227;BME280;51805;49.012;12.104;2023-02-11T06:17:34;99605.94;;;20.61;46.94
65227;BME280;51805;49.012;12.104;2023-02-11T06:19:59;99590.31;;;20.63;46.80
65227;BME280;51805;49.012;12.104;2023-02-11T06:22:25;99575.75;;;20.64;46.93
65227;BME280;51805;49.012;12.104;2023-02-11T06:24:50;99568.47;;;20.64;46.72
65227;BME280;51805;49.012;12.104;2023-02-11T06:27:15;99570.97;;;20.66;46.86
65227;BME280;51805;49.012;12.104;2023-02-11T06:29:40;99575.91;;;20.69;46.61
65227;BME280;51805;49.012;12.104;2023-02-11T06:32:05;99573.81;;;20.71;46.49
65227;BME280;51805;49.012;12.104;2023-02-11T06:34:30;99580.84;;;20.72;46.51
65227;BME280;51805;49.012;12.104;2023-02-11T06:36:56;99591.66;;;20.72;46.41
65227;BME280;51805;49.012;12.104;2023-02-11T06:39:21;99586.25;;;20.72;46.27
65227;BME280;51805;49.012;12.104;2023-02-11T06:41:46;99588.72;;;20.73;46.29
65227;BME280;51805;49.012;12.104;2023-02-11T06:44:11;99585.78;;;20.75;46.24
65227;BME280;51805;49.012;12.104;2023-02-11T06:46:36;99599.69;;;20.78;46.16
65227;BME280;51805;49.012;12.104;2023-02-11T06:49:01;99591.34;;;20.80;46.02
65227;BME280;51805;49.012;12.104;2023-02-11T06:51:26;99594.66;;;20.82;46.02
65227;BME280;51805;49.012;12.104;2023-02-11T06:53:51;99595.22;;;20.84;46.13
65227;BME280;51805;49.012;12.104;2023-02-11T06:56:18;99596.91;;;20.85;46.00
65227;BME280;51805;49.012;12.104;2023-02-11T06:58:44;99607.69;;;20.85;46.08
65227;BME280;51805;49.012;12.104;2023-02-11T07:01:10;99608.28;;;20.87;45.97
65227;BME280;51805;49.012;12.104;2023-02-11T07:03:37;99601.38;;;20.91;45.77
65227;BME280;51805;49.012;12.104;2023-02-11T07:06:06;99598.44;;;20.92;45.96
65227;BME280;51805;49.012;12.104;2023-02-11T07:08:32;99584.28;;;20.97;45.70
65227;BME280;51805;49.012;12.104;2023-02-11T07:10:59;99577.81;;;20.98;45.73
65227;BME280;51805;49.012;12.104;2023-02-11T07:13:25;99580.03;;;21.01;45.62
65227;BME280;51805;49.012;12.104;2023-02-11T07:15:50;99577.72;;;21.04;45.65
65227;BME280;51805;49.012;12.104;2023-02-11T07:18:18;99545.88;;;21.06;45.49
65227;BME280;51805;49.012;12.104;2023-02-11T07:20:44;99570.53;;;21.10;45.37
65227;BME280;51805;49.012;12.104;2023-02-11T07:23:09;99570.31;;;21.11;45.41
65227;BME280;51805;49.012;12.104;2023-02-11T07:25:35;99574.09;;;21.10;45.38
65227;BME280;51805;49.012;12.104;2023-02-11T07:28:00;99572.78;;;21.13;45.23
65227;BME280;51805;49.012;12.104;2023-02-11T07:30:26;99582.09;;;21.17;45.42
65227;BME280;51805;49.012;12.104;2023-02-11T07:32:52;99572.94;;;21.18;45.14
65227;BME280;51805;49.012;12.104;2023-02-11T07:35:18;99571.28;;;21.17;45.20
65227;BME280;51805;49.012;12.104;2023-02-11T07:37:44;99568.13;;;21.20;45.34
65227;BME280;51805;49.012;12.104;2023-02-11T07:40:09;99585.50;;;21.24;45.07
65227;BME280;51805;49.012;12.104;2023-02-11T07:42:35;99578.25;;;21.24;45.04
65227;BME280;51805;49.012;12.104;2023-02-11T07:45:01;99578.59;;;21.28;45.12
65227;BME280;51805;49.012;12.104;2023-02-11T07:47:27;99586.25;;;21.31;44.91
65227;BME280;51805;49.012;12.104;2023-02-11T07:49:52;99593.91;;;21.34;44.82
65227;BME280;51805;49.012;12.104;2023-02-11T07:52:18;99593.91;;;21.34;44.88
65227;BME280;51805;49.012;12.104;2023-02-11T07:54:43;99594.13;;;21.32;45.04
65227;BME280;51805;49.012;12.104;2023-02-11T07:57:08;99602.59;;;21.36;45.03
65227;BME280;51805;49.012;12.104;2023-02-11T07:59:33;99592.13;;;21.39;44.98
65227;BME280;51805;49.012;12.104;2023-02-11T08:01:58;99595.69;;;21.40;44.99
65227;BME280;51805;49.012;12.104;2023-02-11T08:04:23;99598.75;;;21.43;44.65
65227;BME280;51805;49.012;12.104;2023-02-11T08:06:49;99598.50;;;21.45;44.83
65227;BME280;51805;49.012;12.104;2023-02-11T08:09:14;99587.22;;;21.48;44.82
65227;BME280;51805;49.012;12.104;2023-02-11T08:11:40;99590.97;;;21.47;44.85
65227;BME280;51805;49.012;12.104;2023-02-11T08:14:05;99591.56;;;21.49;44.63
65227;BME280;51805;49.012;12.104;2023-02-11T08:16:31;99591.34;;;21.51;44.71
65227;BME280;51805;49.012;12.104;2023-02-11T08:18:57;99595.22;;;21.55;44.50
65227;BME280;51805;49.012;12.104;2023-02-11T08:21:23;99600.38;;;21.56;44.50
65227;BME280;51805;49.012;12.104;2023-02-11T08:23:49;99589.13;;;21.59;44.51
65227;BME280;51805;49.012;12.104;2023-02-11T08:26:16;99572.91;;;21.59;44.48
65227;BME280;51805;49.012;12.104;2023-02-11T08:28:42;99575.13;;;21.62;44.48
65227;BME280;51805;49.012;12.104;2023-02-11T08:31:08;99577.38;;;21.65;44.54
65227;BME280;51805;49.012;12.104;2023-02-11T08:33:43;99581.25;;;21.69;44.33
65227;BME280;51805;49.012;12.104;2023-02-11T08:36:13;99587.25;;;21.71;44.24
65227;BME280;51805;49.012;12.104;2023-02-11T08:38:39;99589.72;;;21.73;44.23
65227;BME280;51805;49.012;12.104;2023-02-11T08:41:05;99590.53;;;21.73;44.42
65227;BME280;51805;49.012;12.104;2023-02-11T08:43:30;99599.28;;;21.75;44.37
65227;BME280;51805;49.012;12.104;2023-02-11T08:45:55;99616.09;;;21.77;44.41
65227;BME280;51805;49.012;12.104;2023-02-11T08:48:20;99618.81;;;21.77;44.29
65227;BME280;51805;49.012;12.104;2023-02-11T08:50:45;99620.81;;;21.82;44.24
65227;BME280;51805;49.012;12.104;2023-02-11T08:53:11;99620.09;;;21.86;44.07
65227;BME280;51805;49.012;12.104;2023-02-11T08:55:36;99619.41;;;21.91;43.92
65227;BME280;51805;49.012;12.104;2023-02-11T08:58:02;99613.16;;;21.90;44.13
65227;BME280;51805;49.012;12.104;2023-02-11T09:00:28;99613.28;;;21.95;44.00
65227;BME280;51805;49.012;12.104;2023-02-11T09:02:53;99611.88;;;21.93;44.02
65227;BME280;51805;49.012;12.104;2023-02-11T09:10:37;99612.34;;;22.01;43.95
65227;BME280;51805;49.012;12.104;2023-02-11T09:13:03;99599.63;;;22.02;43.91
65227;BME280;51805;49.012;12.104;2023-02-11T09:15:29;99596.31;;;22.00;43.83
65227;BME280;51805;49.012;12.104;2023-02-11T09:17:55;99601.75;;;22.00;43.84
65227;BME280;51805;49.012;12.104;2023-02-11T09:20:20;99605.50;;;21.99;44.03
65227;BME280;51805;49.012;12.104;2023-02-11T09:22:45;99615.03;;;22.01;43.96
65227;BME280;51805;49.012;12.104;2023-02-11T09:25:10;99601.50;;;22.01;44.10
65227;BME280;51805;49.012;12.104;2023-02-11T09:27:36;99596.56;;;21.98;44.08
65227;BME280;51805;49.012;12.104;2023-02-11T09:30:01;99590.44;;;22.03;44.04
65227;BME280;51805;49.012;12.104;2023-02-11T09:32:26;99602.09;;;22.03;43.89
65227;BME280;51805;49.012;12.104;2023-02-11T09:34:51;99605.88;;;22.02;44.11
65227;BME280;51805;49.012;12.104;2023-02-11T09:37:17;99607.50;;;22.03;43.88
65227;BME280;51805;49.012;12.104;2023-02-11T09:39:42;99596.69;;;22.03;44.11
65227;BME280;51805;49.012;12.104;2023-02-11T09:44:35;99600.47;;;22.02;44.08
65227;BME280;51805;49.012;12.104;2023-02-11T09:47:02;99591.28;;;22.03;44.05
65227;BME280;51805;49.012;12.104;2023-02-11T09:49:33;99595.84;;;22.03;43.93
65227;BME280;51805;49.012;12.104;2023-02-11T09:52:02;99595.63;;;22.04;44.04
65227;BME280;51805;49.012;12.104;2023-02-11T09:54:31;99598.31;;;22.04;43.79
65227;BME280;51805;49.012;12.104;2023-02-11T09:56:58;99600.00;;;22.05;43.89
65227;BME280;51805;49.012;12.104;2023-02-11T09:59:23;99600.78;;;22.06;44.08
65227;BME280;51805;49.012;12.104;2023-02-11T10:01:49;99604.94;;;22.08;44.01
65227;BME280;51805;49.012;12.104;2023-02-11T10:04:20;99598.91;;;22.06;43.98
65227;BME280;51805;49.012;12.104;2023-02-11T10:22:31;99602.53;;;22.12;43.95
65227;BME280;51805;49.012;12.104;2023-02-11T10:24:59;99600.66;;;22.12;43.79
65227;BME280;51805;49.012;12.104;2023-02-11T10:27:32;99590.69;;;22.13;43.75
65227;BME280;51805;49.012;12.104;2023-02-11T10:30:05;99587.72;;;22.14;43.75
65227;BME280;51805;49.012;12.104;2023-02-11T10:35:18;99585.59;;;22.16;43.74
65227;BME280;51805;49.012;12.104;2023-02-11T10:37:44;99581.25;;;22.15;43.68
65227;BME280;51805;49.012;12.104;2023-02-11T10:40:16;99581.84;;;22.17;43.85
65227;BME280;51805;49.012;12.104;2023-02-11T10:42:43;99581.84;;;22.17;43.66
65227;BME280;51805;49.012;12.104;2023-02-11T10:45:15;99574.31;;;22.19;43.83
65227;BME280;51805;49.012;12.104;2023-02-11T10:47:41;99567.22;;;22.18;43.64
65227;BME280;51805;49.012;12.104;2023-02-11T10:50:23;99560.75;;;22.19;43.81
65227;BME280;51805;49.012;12.104;2023-02-11T10:52:48;99560.75;;;22.19;43.78
65227;BME280;51805;49.012;12.104;2023-02-11T10:57:58;99572.16;;;22.21;43.77
65227;BME280;51805;49.012;12.104;2023-02-11T11:02:56;99557.59;;;22.22;43.57
65227;BME280;51805;49.012;12.104;2023-02-11T11:05:29;99559.22;;;22.23;43.66
65227;BME280;51805;49.012;12.104;2023-02-11T11:07:56;99549.44;;;22.22;43.79
65227;BME280;51805;49.012;12.104;2023-02-11T11:12:53;99547.78;;;22.21;43.70
65227;BME280;51805;49.012;12.104;2023-02-11T11:15:23;99548.38;;;22.23;43.69
65227;BME280;51805;49.012;12.104;2023-02-11T11:17:49;99545.66;;;22.23;43.79
65227;BME280;51805;49.012;12.104;2023-02-11T11:22:46;99529.19;;;22.25;43.60
65227;BME280;51805;49.012;12.104;2023-02-11T11:25:22;99526.25;;;22.26;43.66
65227;BME280;51805;49.012;12.104;2023-02-11T11:27:48;99534.34;;;22.26;43.67
65227;BME280;51805;49.012;12.104;2023-02-11T11:30:14;99550.59;;;22.26;43.76
65227;BME280;51805;49.012;12.104;2023-02-11T11:32:40;99533.28;;;22.27;43.69
65227;BME280;51805;49.012;12.104;2023-02-11T11:35:07;99522.94;;;22.24;43.65
65227;BME280;51805;49.012;12.104;2023-02-11T11:37:44;99545.19;;;22.26;43.69
65227;BME280;51805;49.012;12.104;2023-02-11T11:42:35;99536.81;;;22.28;43.72
65227;BME280;51805;49.012;12.104;2023-02-11T11:45:03;99522.44;;;22.27;43.69
65227;BME280;51805;49.012;12.104;2023-02-11T11:53:03;99522.38;;;22.22;45.11
65227;BME280;51805;49.012;12.104;2023-02-11T11:55:30;99518.59;;;22.12;45.86
65227;BME280;51805;49.012;12.104;2023-02-11T11:57:57;99517.81;;;22.11;45.88
65227;BME280;51805;49.012;12.104;2023-02-11T12:00:27;99511.91;;;22.14;46.18
65227;BME280;51805;49.012;12.104;2023-02-11T12:08:23;99508.00;;;22.10;46.93
65227;BME280;51805;49.012;12.104;2023-02-11T12:11:03;99506.97;;;22.11;46.87
65227;BME280;51805;49.012;12.104;2023-02-11T12:13:33;99509.44;;;22.13;47.04
65227;BME280;51805;49.012;12.104;2023-02-11T12:18:33;99504.03;;;22.13;47.34
65227;BME280;51805;49.012;12.104;2023-02-11T12:21:11;99499.75;;;22.17;47.47
65227;BME280;51805;49.012;12.104;2023-02-11T12:24:41;99500.47;;;22.24;46.87
65227;BME280;51805;49.012;12.104;2023-02-11T12:26:41;99503.66;;;22.21;48.01
65227;BME280;51805;49.012;12.104;2023-02-11T12:31:52;99504.56;;;22.26;47.38
65227;BME280;51805;49.012;12.104;2023-02-11T12:37:27;99483.91;;;22.37;47.50
65227;BME280;51805;49.012;12.104;2023-02-11T12:40:08;99475.53;;;22.38;47.20
65227;BME280;51805;49.012;12.104;2023-02-11T12:53:21;99464.38;;;22.35;47.92
65227;BME280;51805;49.012;12.104;2023-02-11T12:55:51;99462.84;;;22.39;47.54
65227;BME280;51805;49.012;12.104;2023-02-11T12:58:20;99464.94;;;22.37;48.41
65227;BME280;51805;49.012;12.104;2023-02-11T13:00:47;99458.94;;;22.35;48.36
65227;BME280;51805;49.012;12.104;2023-02-11T13:06:21;99464.53;;;22.28;49.02
65227;BME280;51805;49.012;12.104;2023-02-11T13:08:28;99456.28;;;22.23;48.86
65227;BME280;51805;49.012;12.104;2023-02-11T13:10:56;99462.78;;;22.22;48.68
65227;BME280;51805;49.012;12.104;2023-02-11T13:13:26;99457.69;;;22.26;48.99
65227;BME280;51805;49.012;12.104;2023-02-11T13:16:00;99455.16;;;22.19;49.07
65227;BME280;51805;49.012;12.104;2023-02-11T13:18:38;99453.13;;;22.15;48.91
65227;BME280;51805;49.012;12.104;2023-02-11T13:21:20;99454.81;;;22.16;49.22
65227;BME280;51805;49.012;12.104;2023-02-11T13:23:51;99450.19;;;22.16;49.06
65227;BME280;51805;49.012;12.104;2023-02-11T13:26:22;99463.97;;;22.15;49.38
65227;BME280;51805;49.012;12.104;2023-02-11T13:31:17;99465.38;;;22.17;49.39
65227;BME280;51805;49.012;12.104;2023-02-11T13:33:42;99468.59;;;22.14;49.48
65227;BME280;51805;49.012;12.104;2023-02-11T13:38:32;99476.13;;;22.12;49.64
65227;BME280;51805;49.012;12.104;2023-02-11T13:41:00;99461.75;;;22.12;49.48
65227;BME280;51805;49.012;12.104;2023-02-11T13:43:26;99469.88;;;22.12;49.83
65227;BME280;51805;49.012;12.104;2023-02-11T13:45:52;99464.44;;;22.12;49.80
65227;BME280;51805;49.012;12.104;2023-02-11T13:48:25;99462.81;;;22.11;49.79
65227;BME280;51805;49.012;12.104;2023-02-11T13:50:52;99470.69;;;22.12;49.49
65227;BME280;51805;49.012;12.104;2023-02-11T13:53:18;99468.22;;;22.11;49.67
65227;BME280;51805;49.012;12.104;2023-02-11T13:55:45;99462.81;;;22.11;49.74
65227;BME280;51805;49.012;12.104;2023-02-11T13:58:15;99460.69;;;22.13;50.03
65227;BME280;51805;49.012;12.104;2023-02-11T14:05:36;99478.59;;;22.14;49.76
65227;BME280;51805;49.012;12.104;2023-02-11T14:08:10;99468.09;;;22.17;49.55
65227;BME280;51805;49.012;12.104;2023-02-11T14:13:18;99457.75;;;22.14;49.66
65227;BME280;51805;49.012;12.104;2023-02-11T14:15:44;99452.34;;;22.14;49.67
65227;BME280;51805;49.012;12.104;2023-02-11T14:20:52;99444.22;;;22.14;49.81
65227;BME280;51805;49.012;12.104;2023-02-11T14:23:30;99452.34;;;22.14;49.55
65227;BME280;51805;49.012;12.104;2023-02-11T14:25:59;99450.19;;;22.16;49.89
65227;BME280;51805;49.012;12.104;2023-02-11T14:28:27;99451.84;;;22.17;49.75
65227;BME280;51805;49.012;12.104;2023-02-11T14:31:03;99449.38;;;22.16;49.85
65227;BME280;51805;49.012;12.104;2023-02-11T14:36:14;99448.06;;;22.18;49.85
65227;BME280;51805;49.012;12.104;2023-02-11T14:38:57;99445.34;;;22.18;49.88
65227;BME280;51805;49.012;12.104;2023-02-11T14:41:26;99435.13;;;22.20;49.96
65227;BME280;51805;49.012;12.104;2023-02-11T14:43:54;99451.84;;;22.17;49.87
65227;BME280;51805;49.012;12.104;2023-02-11T14:46:22;99450.53;;;22.20;49.70
65227;BME280;51805;49.012;12.104;2023-02-11T14:48:49;99458.41;;;22.21;49.45
65227;BME280;51805;49.012;12.104;2023-02-11T14:51:16;99458.41;;;22.21;49.80
65227;BME280;51805;49.012;12.104;2023-02-11T14:53:44;99453.47;;;22.18;49.70
65227;BME280;51805;49.012;12.104;2023-02-11T14:56:20;99440.53;;;22.20;49.88
65227;BME280;51805;49.012;12.104;2023-02-11T14:58:46;99437.00;;;22.20;49.65
65227;BME280;51805;49.012;12.104;2023-02-11T15:01:22;99441.63;;;22.19;49.40
65227;BME280;51805;49.012;12.104;2023-02-11T15:03:48;99450.28;;;22.21;49.86
65227;BME280;51805;49.012;12.104;2023-02-11T15:06:17;99450.28;;;22.21;49.91
65227;BME280;51805;49.012;12.104;2023-02-11T15:08:46;99447.81;;;22.20;49.58
65227;BME280;51805;49.012;12.104;2023-02-11T15:11:12;99444.31;;;22.19;49.67
65227;BME280;51805;49.012;12.104;2023-02-11T15:13:39;99431.56;;;22.20;49.68